Time;durP1;ratioP1;P1;durP2;ratioP2;P2;SDS_P1;SDS_P2;PMS_P1;PMS_P2;Temp;Humidity;BMP_temperature;BMP_pressure;BME280_temperature;BME280_humidity;BME280_pressure;Samples;Min_cycle;Max_cycle;Signal;HPM_P1;HPM_P2
2021/10/22 00:01:24;;;;;;;11.37;6.70;;;;;;;;;;4988775;28;20285;-77
2021/10/22 00:03:54;;;;;;;12.93;7.03;;;;;;;;;;4973676;28;20204;-77
2021/10/22 00:06:21;;;;;;;10.23;5.17;;;;;;;;;;4986129;28;20209;-77
2021/10/22 00:08:48;;;;;;;7.50;3.47;;;;;;;;;;4982429;28;20296;-76
2021/10/22 00:11:17;;;;;;;6.80;2.90;;;;;;;;;;4988396;28;20235;-77
2021/10/22 00:13:46;;;;;;;9.73;2.60;;;;;;;;;;4988668;28;20289;-77
2021/10/22 00:16:13;;;;;;;6.97;2.60;;;;;;;;;;4987626;28;20301;-77
2021/10/22 00:18:40;;;;;;;7.40;2.87;;;;;;;;;;4985679;28;20237;-78
2021/10/22 00:21:07;;;;;;;8.60;3.20;;;;;;;;;;4978102;28;20297;-77
2021/10/22 00:23:35;;;;;;;6.27;3.33;;;;;;;;;;4983682;28;20745;-77
2021/10/22 00:26:02;;;;;;;8.20;3.07;;;;;;;;;;4984584;28;20632;-77
2021/10/22 00:28:29;;;;;;;5.90;3.50;;;;;;;;;;4980813;28;20227;-77
2021/10/22 00:30:57;;;;;;;9.50;3.87;;;;;;;;;;4980802;28;20294;-77
2021/10/22 00:33:25;;;;;;;9.93;3.80;;;;;;;;;;4983367;28;20277;-77
2021/10/22 00:35:52;;;;;;;9.27;5.30;;;;;;;;;;4980781;28;20314;-77
2021/10/22 00:38:19;;;;;;;9.73;4.40;;;;;;;;;;4979313;28;20362;-77
2021/10/22 00:40:47;;;;;;;8.20;4.03;;;;;;;;;;4980054;28;20266;-77
2021/10/22 00:43:15;;;;;;;5.37;3.10;;;;;;;;;;4980968;28;20298;-77
2021/10/22 00:45:43;;;;;;;6.43;3.23;;;;;;;;;;4987710;28;20200;-77
2021/10/22 00:48:11;;;;;;;7.80;3.13;;;;;;;;;;4982039;28;20221;-77
2021/10/22 00:50:40;;;;;;;7.00;3.60;;;;;;;;;;4982065;28;20742;-77
2021/10/22 00:53:08;;;;;;;8.10;3.90;;;;;;;;;;4983736;28;20194;-77
2021/10/22 00:55:35;;;;;;;9.73;3.87;;;;;;;;;;4982005;28;20312;-77
2021/10/22 00:58:02;;;;;;;8.03;3.33;;;;;;;;;;4980175;28;20290;-77
2021/10/22 01:00:29;;;;;;;8.60;2.80;;;;;;;;;;4975840;28;20231;-77
2021/10/22 01:02:57;;;;;;;6.80;2.53;;;;;;;;;;4978086;28;20279;-77
2021/10/22 01:05:26;;;;;;;5.10;2.93;;;;;;;;;;4988497;28;20281;-77
2021/10/22 01:07:53;;;;;;;5.37;2.47;;;;;;;;;;4987926;28;20198;-77
2021/10/22 01:10:20;;;;;;;5.60;2.83;;;;;;;;;;4983040;28;20281;-77
2021/10/22 01:12:48;;;;;;;6.60;2.93;;;;;;;;;;4986433;28;20674;-77
2021/10/22 01:15:15;;;;;;;4.83;2.40;;;;;;;;;;4990837;28;20765;-77
2021/10/22 01:17:45;;;;;;;4.97;2.80;;;;;;;;;;4974105;28;20240;-77
2021/10/22 01:20:14;;;;;;;4.67;2.60;;;;;;;;;;4977225;28;20202;-77
2021/10/22 01:22:43;;;;;;;6.67;2.50;;;;;;;;;;4991511;28;20285;-77
2021/10/22 01:25:12;;;;;;;4.33;2.20;;;;;;;;;;4986560;28;20229;-77
2021/10/22 01:27:39;;;;;;;3.70;2.13;;;;;;;;;;4985162;28;20208;-77
2021/10/22 01:30:07;;;;;;;4.80;2.40;;;;;;;;;;4991005;28;20289;-77
2021/10/22 01:32:34;;;;;;;6.60;2.00;;;;;;;;;;4984274;28;20741;-77
2021/10/22 01:35:02;;;;;;;6.33;2.13;;;;;;;;;;4983315;28;20292;-77
2021/10/22 01:37:29;;;;;;;4.83;2.20;;;;;;;;;;4973349;28;20233;-77
2021/10/22 01:39:58;;;;;;;3.67;1.87;;;;;;;;;;4973325;28;20328;-77
2021/10/22 01:42:25;;;;;;;6.17;2.40;;;;;;;;;;4981405;28;20296;-77
2021/10/22 01:44:52;;;;;;;3.97;2.00;;;;;;;;;;4982432;28;20230;-77
2021/10/22 01:47:20;;;;;;;5.97;2.20;;;;;;;;;;4988004;28;20285;-76
2021/10/22 01:49:47;;;;;;;4.03;1.90;;;;;;;;;;4982427;28;20285;-77
2021/10/22 01:52:14;;;;;;;7.87;2.03;;;;;;;;;;4975454;28;20234;-77
2021/10/22 01:54:42;;;;;;;3.23;2.07;;;;;;;;;;4982683;28;20637;-77
2021/10/22 01:57:11;;;;;;;5.83;1.90;;;;;;;;;;4984158;28;20269;-77
2021/10/22 01:59:38;;;;;;;4.67;1.63;;;;;;;;;;4977878;28;20214;-77
2021/10/22 02:02:06;;;;;;;3.93;1.87;;;;;;;;;;4986670;28;20225;-77
2021/10/22 02:04:34;;;;;;;2.37;1.60;;;;;;;;;;4976467;28;20230;-77
2021/10/22 02:07:01;;;;;;;6.53;1.73;;;;;;;;;;4989338;28;20287;-77
2021/10/22 02:09:28;;;;;;;4.27;2.13;;;;;;;;;;4979087;28;20258;-77
2021/10/22 02:11:55;;;;;;;3.43;1.83;;;;;;;;;;4972382;28;20233;-77
2021/10/22 02:14:24;;;;;;;5.17;1.90;;;;;;;;;;4987808;28;20241;-77
2021/10/22 02:16:51;;;;;;;3.53;1.97;;;;;;;;;;4983597;28;20330;-77
2021/10/22 02:19:18;;;;;;;6.03;1.83;;;;;;;;;;4989783;28;20293;-77
2021/10/22 02:21:46;;;;;;;3.97;1.80;;;;;;;;;;4990240;28;20327;-77
2021/10/22 02:24:13;;;;;;;4.30;1.73;;;;;;;;;;4989811;28;20229;-77
2021/10/22 02:26:40;;;;;;;4.23;1.93;;;;;;;;;;4988288;28;20616;-77
2021/10/22 02:29:07;;;;;;;3.27;1.70;;;;;;;;;;4982891;28;20209;-78
2021/10/22 02:31:36;;;;;;;6.07;2.10;;;;;;;;;;4975774;28;20255;-77
2021/10/22 02:34:03;;;;;;;4.20;1.87;;;;;;;;;;4986400;28;20291;-77
2021/10/22 02:36:30;;;;;;;5.20;2.20;;;;;;;;;;4982319;28;20320;-77
2021/10/22 02:38:57;;;;;;;4.50;2.10;;;;;;;;;;4990345;28;20243;-77
2021/10/22 02:41:25;;;;;;;5.87;2.47;;;;;;;;;;4980115;28;20264;-77
2021/10/22 02:43:52;;;;;;;4.57;2.00;;;;;;;;;;4983828;28;20246;-77
2021/10/22 02:46:19;;;;;;;3.77;1.97;;;;;;;;;;4973772;28;20288;-76
2021/10/22 02:48:48;;;;;;;4.57;2.00;;;;;;;;;;4987143;28;20287;-77
2021/10/22 02:51:15;;;;;;;4.27;2.00;;;;;;;;;;4987611;28;20756;-77
2021/10/22 02:53:43;;;;;;;3.40;1.80;;;;;;;;;;4985472;28;20244;-77
2021/10/22 02:56:10;;;;;;;3.43;1.90;;;;;;;;;;4988833;28;20701;-77
2021/10/22 02:58:37;;;;;;;3.83;1.80;;;;;;;;;;4974611;28;20295;-76
2021/10/22 03:01:05;;;;;;;3.60;1.93;;;;;;;;;;4989656;28;20288;-77
2021/10/22 03:03:32;;;;;;;4.50;2.03;;;;;;;;;;4983727;28;20731;-77
2021/10/22 03:06:01;;;;;;;4.50;1.93;;;;;;;;;;4978077;28;20289;-77
2021/10/22 03:08:28;;;;;;;5.03;2.50;;;;;;;;;;4976033;28;20242;-76
2021/10/22 03:10:55;;;;;;;3.70;1.90;;;;;;;;;;4974035;28;20297;-77
2021/10/22 03:13:22;;;;;;;3.03;1.87;;;;;;;;;;4978441;28;20209;-76
2021/10/22 03:15:50;;;;;;;2.53;1.63;;;;;;;;;;4971836;28;20238;-77
2021/10/22 03:18:17;;;;;;;4.93;1.90;;;;;;;;;;4984955;28;20636;-77
2021/10/22 03:20:44;;;;;;;4.27;1.90;;;;;;;;;;4989523;28;20677;-77
2021/10/22 03:23:13;;;;;;;6.13;1.90;;;;;;;;;;4986869;28;20700;-77
2021/10/22 03:25:40;;;;;;;4.00;2.20;;;;;;;;;;4978431;28;20558;-77
2021/10/22 03:28:07;;;;;;;3.47;1.77;;;;;;;;;;4988730;28;20287;-77
2021/10/22 03:30:34;;;;;;;5.43;2.03;;;;;;;;;;4981587;28;20287;-77
2021/10/22 03:33:02;;;;;;;6.07;2.30;;;;;;;;;;4981300;28;20199;-76
2021/10/22 03:35:30;;;;;;;6.37;2.63;;;;;;;;;;4981649;28;20669;-77
2021/10/22 03:37:57;;;;;;;6.53;2.30;;;;;;;;;;4976206;28;20228;-77
2021/10/22 03:40:26;;;;;;;4.10;2.57;;;;;;;;;;4981464;28;20293;-77
2021/10/22 03:42:54;;;;;;;6.43;2.90;;;;;;;;;;4986930;28;20208;-76
2021/10/22 03:45:21;;;;;;;5.13;3.10;;;;;;;;;;4979916;28;20228;-76
2021/10/22 03:47:49;;;;;;;6.87;3.50;;;;;;;;;;4973272;28;20569;-77
2021/10/22 03:50:17;;;;;;;4.37;2.80;;;;;;;;;;4975866;28;20193;-77
2021/10/22 03:52:45;;;;;;;5.70;3.07;;;;;;;;;;4989349;28;20213;-76
2021/10/22 03:55:12;;;;;;;3.57;2.13;;;;;;;;;;4988654;28;20308;-77
2021/10/22 03:57:41;;;;;;;4.20;2.30;;;;;;;;;;4988845;28;20317;-77
2021/10/22 04:00:09;;;;;;;8.27;2.77;;;;;;;;;;4970809;28;20240;-77
2021/10/22 04:02:37;;;;;;;5.00;3.17;;;;;;;;;;4970215;28;20231;-77
2021/10/22 04:05:07;;;;;;;5.17;2.70;;;;;;;;;;4973744;28;20239;-76
2021/10/22 04:07:34;;;;;;;4.23;2.87;;;;;;;;;;4989220;28;20200;-77
2021/10/22 04:10:01;;;;;;;5.57;3.10;;;;;;;;;;4979882;28;20294;-77
2021/10/22 04:12:29;;;;;;;3.77;2.60;;;;;;;;;;4976019;28;20293;-77
2021/10/22 04:14:57;;;;;;;5.67;2.90;;;;;;;;;;4975706;28;20294;-77
2021/10/22 04:17:25;;;;;;;5.80;2.53;;;;;;;;;;4987435;28;20238;-77
2021/10/22 04:19:52;;;;;;;7.53;2.40;;;;;;;;;;4973719;28;20208;-76
2021/10/22 04:22:19;;;;;;;4.47;2.50;;;;;;;;;;4987798;28;20205;-77
2021/10/22 04:24:46;;;;;;;6.33;2.70;;;;;;;;;;4991273;28;20232;-77
2021/10/22 04:27:13;;;;;;;7.73;2.60;;;;;;;;;;4990488;28;20227;-77
2021/10/22 04:29:41;;;;;;;3.77;2.40;;;;;;;;;;4979469;28;20292;-77
2021/10/22 04:32:10;;;;;;;4.77;2.37;;;;;;;;;;4980539;28;20665;-76
2021/10/22 04:34:37;;;;;;;3.97;2.63;;;;;;;;;;4986642;28;20723;-77
2021/10/22 04:37:24;;;;;;;4.23;2.00;;;;;;;;;;4980402;28;20276;-76
2021/10/22 04:42:38;;;;;;;3.57;2.30;;;;;;;;;;4973279;28;20198;-77
2021/10/22 04:45:06;;;;;;;5.77;2.30;;;;;;;;;;4973939;28;20289;-77
2021/10/22 04:47:35;;;;;;;5.53;3.03;;;;;;;;;;4991865;28;20238;-77
2021/10/22 04:50:03;;;;;;;4.73;2.30;;;;;;;;;;4987521;28;20790;-77
2021/10/22 04:52:30;;;;;;;5.60;2.20;;;;;;;;;;4972575;28;20286;-77
2021/10/22 04:54:57;;;;;;;3.70;2.20;;;;;;;;;;4985169;28;20640;-77
2021/10/22 04:57:24;;;;;;;4.70;2.90;;;;;;;;;;4989124;28;20221;-77
2021/10/22 04:59:51;;;;;;;4.97;2.73;;;;;;;;;;4991626;28;20229;-77
2021/10/22 05:02:19;;;;;;;5.57;2.57;;;;;;;;;;4976064;28;20753;-75
2021/10/22 05:04:48;;;;;;;4.10;2.57;;;;;;;;;;4982838;28;20294;-76
2021/10/22 05:07:15;;;;;;;4.33;2.50;;;;;;;;;;4991428;28;20667;-76
2021/10/22 05:09:42;;;;;;;6.90;2.60;;;;;;;;;;4986313;28;20648;-75
2021/10/22 05:12:09;;;;;;;6.13;2.37;;;;;;;;;;4986774;28;20319;-76
2021/10/22 05:14:37;;;;;;;4.97;2.57;;;;;;;;;;4983381;28;20219;-75
2021/10/22 05:17:04;;;;;;;2.97;2.33;;;;;;;;;;4983513;28;20251;-77
2021/10/22 05:19:32;;;;;;;6.27;2.47;;;;;;;;;;4986912;28;20724;-76
2021/10/22 05:22:01;;;;;;;6.17;2.63;;;;;;;;;;4984313;28;20276;-75
2021/10/22 05:24:28;;;;;;;4.43;2.70;;;;;;;;;;4986459;28;20201;-76
2021/10/22 05:26:55;;;;;;;5.37;3.07;;;2.00;99.90;;;;;;4984941;28;20294;-76
2021/10/22 05:29:22;;;;;;;5.37;2.57;;;;;;;;;;4978376;28;20711;-75
2021/10/22 05:31:50;;;;;;;4.50;2.60;;;;;;;;;;4990333;28;20205;-75
2021/10/22 05:34:20;;;;;;;3.20;2.37;;;;;;;;;;4985431;28;20761;-75
2021/10/22 05:36:47;;;;;;;3.63;2.10;;;;;;;;;;4971786;28;20214;-76
2021/10/22 05:39:16;;;;;;;6.53;2.20;;;;;;;;;;4982201;28;20205;-76
2021/10/22 05:41:44;;;;;;;4.17;2.30;;;;;;;;;;4976128;28;20807;-76
2021/10/22 05:44:11;;;;;;;3.37;2.27;;;;;;;;;;4989161;28;20238;-76
2021/10/22 05:46:38;;;;;;;4.37;2.23;;;1.80;99.90;;;;;;4990413;28;20666;-76
2021/10/22 05:49:05;;;;;;;2.73;2.00;;;;;;;;;;4973332;28;20282;-77
2021/10/22 05:51:33;;;;;;;3.43;1.90;;;;;;;;;;4977984;28;20700;-75
2021/10/22 05:53:59;;;;;;;3.80;2.27;;;1.80;99.90;;;;;;4985177;28;20245;-75
2021/10/22 05:56:28;;;;;;;5.17;2.23;;;;;;;;;;4990813;28;20614;-76
2021/10/22 05:58:55;;;;;;;4.67;2.20;;;1.80;99.90;;;;;;4991376;28;20309;-75
2021/10/22 06:01:22;;;;;;;4.70;2.10;;;1.80;99.90;;;;;;4990938;28;20211;-75
2021/10/22 06:03:49;;;;;;;5.67;2.50;;;;;;;;;;4990054;28;20310;-75
2021/10/22 06:06:16;;;;;;;4.77;2.40;;;1.80;99.90;;;;;;4990815;28;20265;-76
2021/10/22 06:08:44;;;;;;;4.13;2.33;;;;;;;;;;4990905;28;20194;-75
2021/10/22 06:11:11;;;;;;;4.83;2.27;;;1.90;99.90;;;;;;4990832;28;20242;-76
2021/10/22 06:13:40;;;;;;;3.80;2.27;;;;;;;;;;4990650;28;20211;-76
2021/10/22 06:16:08;;;;;;;5.83;2.37;;;1.90;99.90;;;;;;4985568;28;20527;-76
2021/10/22 06:18:38;;;;;;;3.73;2.43;;;1.90;99.90;;;;;;4979605;28;20314;-75
2021/10/22 06:21:07;;;;;;;8.07;2.20;;;;;;;;;;4977374;28;20203;-76
2021/10/22 06:26:19;;;;;;;4.80;2.60;;;1.80;99.90;;;;;;4981037;28;20201;-75
2021/10/22 06:28:47;;;;;;;5.37;2.57;;;1.90;99.90;;;;;;4978762;28;20214;-76
2021/10/22 06:31:15;;;;;;;5.07;2.60;;;1.80;99.90;;;;;;4987012;28;20242;-76
2021/10/22 06:33:42;;;;;;;5.50;2.80;;;1.80;99.90;;;;;;4989592;28;20690;-76
2021/10/22 06:36:10;;;;;;;8.73;2.83;;;1.70;99.90;;;;;;4990310;28;20652;-75
2021/10/22 06:38:37;;;;;;;4.60;3.17;;;1.70;99.90;;;;;;4990500;28;20263;-75
2021/10/22 06:41:07;;;;;;;7.17;2.87;;;1.70;99.90;;;;;;4980330;28;20285;-76
2021/10/22 06:43:34;;;;;;;4.97;3.03;;;1.70;99.90;;;;;;4981995;28;20263;-75
2021/10/22 06:46:04;;;;;;;8.43;3.40;;;1.70;99.90;;;;;;4974777;28;20199;-75
2021/10/22 06:48:30;;;;;;;13.27;3.60;;;1.70;99.90;;;;;;4973619;28;20199;-75
2021/10/22 06:50:58;;;;;;;10.77;3.43;;;1.60;99.90;;;;;;4985279;28;20285;-75
2021/10/22 06:53:25;;;;;;;7.20;3.27;;;1.70;99.90;;;;;;4979805;28;20304;-75
2021/10/22 06:55:52;;;;;;;3.90;2.80;;;1.60;99.90;;;;;;4983275;28;20286;-75
2021/10/22 06:58:19;;;;;;;6.30;2.90;;;1.70;99.90;;;;;;4978119;28;20315;-75
2021/10/22 07:00:49;;;;;;;4.63;2.80;;;1.80;99.90;;;;;;4987163;28;20212;-75
2021/10/22 07:03:19;;;;;;;4.57;3.00;;;1.90;99.90;;;;;;4975263;28;20224;-74
2021/10/22 07:08:43;;;;;;;5.33;2.77;;;;;;;;;;4918573;28;20235;-76
2021/10/22 07:11:11;;;;;;;4.17;2.87;;;;;;;;;;4939807;28;20669;-76
2021/10/22 07:13:39;;;;;;;6.77;3.03;;;;;;;;;;4926001;28;20300;-76
2021/10/22 07:16:07;;;;;;;4.70;2.70;;;;;;;;;;4905705;28;20209;-76
2021/10/22 07:18:37;;;;;;;5.63;2.37;;;;;;;;;;4897885;29;20249;-75
2021/10/22 07:21:04;;;;;;;2.93;2.50;;;;;;;;;;4920367;28;20238;-75
2021/10/22 07:23:34;;;;;;;4.23;1.87;;;;;;;;;;4913416;28;20259;-76
2021/10/22 07:26:01;;;;;;;5.43;2.00;;;;;;;;;;4908395;29;20331;-75
2021/10/22 07:28:28;;;;;;;7.47;2.57;;;;;;;;;;4909938;29;20211;-75
2021/10/22 07:30:55;;;;;;;8.63;2.50;;;;;;;;;;4910960;29;20237;-75
2021/10/22 07:33:23;;;;;;;3.97;2.07;;;;;;;;;;4910267;29;20718;-74
2021/10/22 07:35:51;;;;;;;7.03;2.40;;;;;;;;;;4909872;29;20292;-75
2021/10/22 07:38:18;;;;;;;7.23;2.23;;;;;;;;;;4898456;29;20237;-75
2021/10/22 07:40:46;;;;;;;4.97;1.80;;;;;;;;;;4891829;29;20323;-75
2021/10/22 07:43:14;;;;;;;4.13;1.87;;;;;;;;;;4950332;28;20255;-75
2021/10/22 07:45:42;;;;;;;3.17;1.70;;;;;;;;;;4989559;28;20637;-77
2021/10/22 07:48:09;;;;;;;4.30;1.90;;;;;;;;;;4986881;28;20708;-75
2021/10/22 07:50:36;;;;;;;2.80;1.80;;;;;;;;;;4969931;28;20206;-75
2021/10/22 07:53:05;;;;;;;3.50;1.87;;;;;;;;;;4970110;28;20317;-75
2021/10/22 07:55:35;;;;;;;4.83;2.00;;;;;;;;;;4970398;28;20203;-76
2021/10/22 07:58:02;;;;;;;4.67;2.27;;;;;;;;;;4970744;28;20226;-75
2021/10/22 08:00:31;;;;;;;3.77;2.20;;;;;;;;;;4973722;28;20289;-75
2021/10/22 08:02:58;;;;;;;3.90;1.77;;;;;;;;;;4973510;28;20229;-74
2021/10/22 08:05:26;;;;;;;3.70;1.80;;;;;;;;;;4973521;28;20238;-77
2021/10/22 08:07:53;;;;;;;3.10;1.80;;;;;;;;;;4973252;28;20716;-76
2021/10/22 08:10:22;;;;;;;4.03;2.10;;;;;;;;;;4973273;28;20292;-76
2021/10/22 08:12:50;;;;;;;4.20;2.03;;;;;;;;;;4972603;28;20202;-76
2021/10/22 08:15:17;;;;;;;2.85;1.70;;;;;;;;;;4986300;28;20193;-76
2021/10/22 08:17:44;;;;;;;4.72;2.13;;;;;;;;;;4992176;28;20285;-76
2021/10/22 08:20:16;;;;;;;4.65;2.80;;;;;;;;;;4992594;28;20301;-76
2021/10/22 08:22:44;;;;;;;2.95;2.17;;;;;;;;;;4989210;28;20264;-76
2021/10/22 08:25:12;;;;;;;3.33;1.92;;;;;;;;;;4973273;28;20289;-76
2021/10/22 08:27:41;;;;;;;4.65;2.38;;;;;;;;;;4972999;28;20628;-76
2021/10/22 08:30:14;;;;;;;3.17;1.77;;;;;;;;;;4972921;28;20199;-76
2021/10/22 08:32:47;;;;;;;3.85;2.10;;;;;;;;;;4973195;28;20234;-76
2021/10/22 08:35:14;;;;;;;4.00;2.10;;;;;;;;;;4990109;28;20224;-76
2021/10/22 08:37:41;;;;;;;5.53;2.30;;;;;;;;;;4992550;28;20229;-76
2021/10/22 08:40:11;;;;;;;3.67;2.08;;;;;;;;;;4976081;28;20241;-76
2021/10/22 08:42:39;;;;;;;2.80;2.00;;;;;;;;;;4974099;28;20689;-76
2021/10/22 08:45:08;;;;;;;4.15;1.80;;;;;;;;;;4980404;28;20206;-77
2021/10/22 08:47:36;;;;;;;7.35;1.85;;;;;;;;;;4982944;28;20264;-76
2021/10/22 08:50:04;;;;;;;5.45;2.35;;;;;;;;;;4982145;28;20668;-77
2021/10/22 08:52:32;;;;;;;4.57;2.00;;;;;;;;;;4983255;28;20205;-77
2021/10/22 08:55:00;;;;;;;6.85;2.38;;;;;;;;;;4978048;28;20297;-77
2021/10/22 08:57:37;;;;;;;3.88;2.80;;;;;;;;;;4982949;28;20234;-74
2021/10/22 09:00:04;;;;;;;5.93;2.38;;;;;;;;;;4979245;28;20221;-77
2021/10/22 09:02:33;;;;;;;5.80;3.08;;;;;;;;;;4983135;28;20217;-77
2021/10/22 09:05:11;;;;;;;8.15;3.30;;;;;;;;;;4992102;28;20210;-77
2021/10/22 09:07:43;;;;;;;5.03;3.10;;;;;;;;;;4988482;28;20271;-77
2021/10/22 09:10:12;;;;;;;6.18;3.63;;;;;;;;;;4979401;28;20284;-77
2021/10/22 09:12:46;;;;;;;6.22;3.50;;;;;;;;;;4964732;28;20241;-77
2021/10/22 09:15:14;;;;;;;8.73;3.40;;;;;;;;;;4980331;28;20657;-77
2021/10/22 09:17:44;;;;;;;8.88;4.15;;;;;;;;;;4980221;28;20223;-77
2021/10/22 09:20:13;;;;;;;7.95;4.40;;;;;;;;;;4977802;28;20218;-77
2021/10/22 09:22:41;;;;;;;7.57;3.50;;;;;;;;;;4979365;28;20209;-77
2021/10/22 09:25:09;;;;;;;10.73;6.13;;;;;;;;;;4982600;28;20620;-77
2021/10/22 09:27:41;;;;;;;7.30;3.83;;;;;;;;;;4988149;28;20204;-77
2021/10/22 09:30:10;;;;;;;6.93;3.13;;;;;;;;;;4981143;28;20306;-77
2021/10/22 09:32:46;;;;;;;5.22;2.65;;;;;;;;;;4984655;28;20216;-76
2021/10/22 09:35:14;;;;;;;5.45;2.47;;;;;;;;;;4979571;28;20198;-77
2021/10/22 09:37:46;;;;;;;5.13;2.60;;;;;;;;;;4979308;28;20206;-76
2021/10/22 09:40:13;;;;;;;4.88;3.00;;;;;;;;;;4979021;28;20579;-76
2021/10/22 09:42:49;;;;;;;5.65;3.00;;;;;;;;;;4983762;28;20236;-76
2021/10/22 09:45:25;;;;;;;6.07;3.05;;;;;;;;;;4965605;28;20684;-76
2021/10/22 09:47:54;;;;;;;5.80;3.10;;;;;;;;;;4980263;28;20208;-76
2021/10/22 09:50:26;;;;;;;6.10;3.50;;;;;;;;;;4978538;28;20282;-76
2021/10/22 09:52:54;;;;;;;5.00;2.58;;;;;;;;;;4980527;28;20229;-76
2021/10/22 09:55:21;;;;;;;5.88;2.03;;;;;;;;;;4970645;28;20206;-76
2021/10/22 09:58:05;;;;;;;4.47;1.75;;;;;;;;;;4984657;28;20293;-76
2021/10/22 10:00:34;;;;;;;4.20;2.03;;;;;;;;;;4990439;28;20206;-76
2021/10/22 10:03:03;;;;;;;5.47;1.77;;;;;;;;;;4990809;28;20236;-76
2021/10/22 10:05:31;;;;;;;5.65;2.08;;;;;;;;;;4980451;28;20866;-76
2021/10/22 10:08:00;;;;;;;5.93;2.33;;;;;;;;;;4982941;28;20255;-76
2021/10/22 10:10:27;;;;;;;6.68;2.20;;;;;;;;;;4990370;28;20245;-76
2021/10/22 10:12:54;;;;;;;7.03;2.10;;;;;;;;;;4976896;28;20207;-76
2021/10/22 10:15:22;;;;;;;3.58;1.80;;;;;;;;;;4990194;28;20290;-76
2021/10/22 10:17:50;;;;;;;4.55;1.58;;;;;;;;;;4989666;28;20241;-76
2021/10/22 10:20:22;;;;;;;5.07;1.60;;;;;;;;;;4989980;28;20251;-76
2021/10/22 10:22:50;;;;;;;4.57;1.77;;;;;;;;;;4989847;28;20301;-76
2021/10/22 10:25:19;;;;;;;5.30;1.60;;;;;;;;;;4989847;28;20292;-76
2021/10/22 10:27:48;;;;;;;3.22;1.48;;;;;;;;;;4971166;28;20728;-76
2021/10/22 10:30:16;;;;;;;5.90;1.65;;;;;;;;;;4971200;28;20290;-76
2021/10/22 10:32:44;;;;;;;4.38;1.60;;;;;;;;;;4971495;28;20213;-77
2021/10/22 10:35:12;;;;;;;4.38;1.52;;;;;;;;;;4990441;28;20205;-76
2021/10/22 10:37:41;;;;;;;3.90;1.33;;;;;;;;;;4990059;28;20205;-76
2021/10/22 10:40:13;;;;;;;5.50;1.90;;;;;;;;;;4990271;28;20282;-76
2021/10/22 10:42:42;;;;;;;3.88;1.58;;;;;;;;;;4990430;28;20206;-77
2021/10/22 10:45:17;;;;;;;3.95;1.52;;;;;;;;;;4989720;28;20213;-77
2021/10/22 10:47:48;;;;;;;6.13;1.92;;;;;;;;;;4990090;28;20664;-77
2021/10/22 10:50:18;;;;;;;4.32;1.63;;;;;;;;;;4981435;28;20209;-76
2021/10/22 10:53:00;;;;;;;4.95;1.83;;;;;;;;;;4973195;28;20205;-77
2021/10/22 10:55:30;;;;;;;4.13;1.70;;;;;;;;;;4986726;28;20292;-77
2021/10/22 10:57:59;;;;;;;4.93;1.70;;;;;;;;;;4970500;28;20584;-77
2021/10/22 11:00:30;;;;;;;4.15;1.70;;;;;;;;;;4974852;28;20249;-76
2021/10/22 11:03:09;;;;;;;4.63;1.73;;;;;;;;;;4970723;28;20229;-77
2021/10/22 11:06:03;;;;;;;3.85;1.20;;;;;;;;;;4970299;28;20259;-76
2021/10/22 11:08:38;;;;;;;7.22;1.67;;;;;;;;;;4974674;28;20206;-76
2021/10/22 11:11:09;;;;;;;4.65;1.70;;;;;;;;;;4970725;28;20298;-77
2021/10/22 11:13:46;;;;;;;3.90;1.52;;;;;;;;;;4970408;28;20211;-76
2021/10/22 11:16:28;;;;;;;5.32;1.75;;;;;;;;;;4977560;28;20204;-76
2021/10/22 11:18:55;;;;;;;4.82;1.65;;;;;;;;;;4989894;28;20324;-76
2021/10/22 11:21:23;;;;;;;4.22;1.75;;;;;;;;;;4989531;28;20229;-77
2021/10/22 11:23:50;;;;;;;3.45;1.40;;;;;;;;;;4989435;28;20661;-77
2021/10/22 11:26:19;;;;;;;5.50;1.77;;;;;;;;;;4989432;28;20289;-77
2021/10/22 11:28:47;;;;;;;5.80;2.00;;;;;;;;;;4989359;28;20570;-77
2021/10/22 11:31:14;;;;;;;3.28;1.67;;;;;;;;;;4989809;28;20198;-77
2021/10/22 11:33:43;;;;;;;4.25;1.48;;;;;;;;;;4988737;28;20233;-76
2021/10/22 11:36:12;;;;;;;5.38;1.90;;;;;;;;;;4989093;28;20213;-77
2021/10/22 11:38:42;;;;;;;4.38;1.45;;;;;;;;;;4989190;28;20730;-77
2021/10/22 11:41:13;;;;;;;4.60;1.10;;;;;;;;;;4989357;28;20321;-76
2021/10/22 11:43:57;;;;;;;6.07;1.40;;;;;;;;;;4989578;28;20213;-77
2021/10/22 11:46:24;;;;;;;4.07;1.20;;;;;;;;;;4989861;28;20208;-76
2021/10/22 11:48:52;;;;;;;3.97;1.00;;;;;;;;;;4986888;28;20252;-77
2021/10/22 11:51:19;;;;;;;3.67;1.63;;;;;;;;;;4989414;28;20245;-77
2021/10/22 11:53:46;;;;;;;7.07;2.08;;;;;;;;;;4988937;28;20224;-76
2021/10/22 11:56:13;;;;;;;6.60;2.20;;;;;;;;;;4984486;28;20282;-76
2021/10/22 11:58:42;;;;;;;5.40;2.03;;;;;;;;;;4969727;28;20297;-76
2021/10/22 12:01:09;;;;;;;5.63;1.85;;;;;;;;;;4972220;28;20759;-76
2021/10/22 12:03:38;;;;;;;5.25;1.27;;;;;;;;;;4989009;28;20783;-76
2021/10/22 12:06:05;;;;;;;2.95;0.80;;;;;;;;;;4989404;28;20239;-76
2021/10/22 12:08:33;;;;;;;4.18;0.80;;;;;;;;;;4989561;28;20289;-76
2021/10/22 12:11:00;;;;;;;3.10;0.80;;;;;;;;;;4988349;28;20239;-76
2021/10/22 12:13:28;;;;;;;2.20;0.80;;;;;;;;;;4989269;28;20233;-76
2021/10/22 12:15:56;;;;;;;3.20;1.00;;;;;;;;;;4989106;28;20657;-76
2021/10/22 12:18:23;;;;;;;2.92;0.90;;;;;;;;;;4988469;28;20688;-76
2021/10/22 12:20:51;;;;;;;3.47;0.70;;;;;;;;;;4989179;28;20336;-76
2021/10/22 12:23:18;;;;;;;2.60;0.88;;;;;;;;;;4989139;28;20293;-76
2021/10/22 12:25:46;;;;;;;4.68;1.02;;;;;;;;;;4985019;28;20293;-76
2021/10/22 12:28:14;;;;;;;2.78;1.00;;;;;;;;;;4977949;28;20261;-76
2021/10/22 12:30:42;;;;;;;4.25;1.00;;;;;;;;;;4988805;28;20198;-76
2021/10/22 12:33:11;;;;;;;2.88;0.85;;;;;;;;;;4988572;28;20208;-76
2021/10/22 12:35:42;;;;;;;4.97;1.05;;;;;;;;;;4988919;28;20248;-75
2021/10/22 12:38:10;;;;;;;4.70;1.10;;;;;;;;;;4969519;28;20206;-76
2021/10/22 12:40:40;;;;;;;5.07;1.13;;;;;;;;;;4969681;28;20241;-76
2021/10/22 12:43:22;;;;;;;3.50;0.88;;;;;;;;;;4969632;28;20203;-76
2021/10/22 12:45:53;;;;;;;3.17;1.00;;;;;;;;;;4971975;28;20209;-76
2021/10/22 12:48:23;;;;;;;4.53;1.10;;;;;;;;;;4972851;28;20203;-76
2021/10/22 12:50:51;;;;;;;5.43;1.02;;;;;;;;;;4972813;28;20648;-76
2021/10/22 12:53:20;;;;;;;3.00;0.90;;;;;;;;;;4972469;28;20648;-75
2021/10/22 12:55:59;;;;;;;4.43;1.00;;;;;;;;;;4972717;28;20209;-76
2021/10/22 12:58:27;;;;;;;4.95;1.08;;;;;;;;;;4982755;28;20202;-76
2021/10/22 13:01:05;;;;;;;3.10;1.00;;;;;;;;;;4991971;28;20708;-76
2021/10/22 13:03:33;;;;;;;6.63;1.17;;;;;;;;;;4991231;28;20253;-75
2021/10/22 13:06:09;;;;;;;5.17;1.10;;;;;;;;;;4991932;28;20288;-75
2021/10/22 13:08:42;;;;;;;4.38;0.95;;;;;;;;;;4984383;28;20290;-76
2021/10/22 13:11:32;;;;;;;4.22;1.05;;;;;;;;;;4991883;28;20202;-76
2021/10/22 13:22:15;;;;;;;3.83;0.97;;;;;;;;;;4972243;28;20204;-75
2021/10/22 13:24:42;;;;;;;6.97;1.13;;;;;;;;;;4972157;28;20674;-76
2021/10/22 13:27:09;;;;;;;4.63;1.00;;;;;;;;;;4971973;28;20311;-75
2021/10/22 13:29:36;;;;;;;3.80;1.00;;;;;;;;;;4972189;28;20727;-75
2021/10/22 13:32:04;;;;;;;2.60;0.80;;;;;;;;;;4977892;28;20237;-76
2021/10/22 13:34:33;;;;;;;2.47;0.80;;;;;;;;;;4991167;28;20238;-75
2021/10/22 13:37:00;;;;;;;3.50;1.00;;;;;;;;;;4991134;28;20288;-76
2021/10/22 13:39:27;;;;;;;6.27;1.20;;;;;;;;;;4990812;28;20320;-75
2021/10/22 13:41:54;;;;;;;4.57;1.77;;;;;;;;;;4991102;28;20233;-75
2021/10/22 13:44:21;;;;;;;6.67;3.00;;;;;;;;;;4991107;28;20212;-75
2021/10/22 13:46:49;;;;;;;4.10;1.20;;;;;;;;;;4991356;28;20293;-76
2021/10/22 13:49:17;;;;;;;3.60;1.00;;;;;;;;;;4991151;28;20209;-75
2021/10/22 13:51:45;;;;;;;7.13;1.20;;;;;;;;;;4991442;28;20206;-75
2021/10/22 13:54:12;;;;;;;4.30;1.00;;;;;;;;;;4991065;28;20275;-75
2021/10/22 13:56:40;;;;;;;4.17;0.93;;;;;;;;;;4989333;28;20233;-75
2021/10/22 13:59:07;;;;;;;3.70;0.90;;;;;;;;;;4986904;28;20233;-75
2021/10/22 14:01:34;;;;;;;3.47;1.10;;;;;;;;;;5005485;28;20232;-76
2021/10/22 14:04:02;;;;;;;5.67;1.00;;;;;;;;;;4991171;28;20234;-75
2021/10/22 14:06:33;;;;;;;4.80;1.00;;;;;;;;;;4990613;28;20202;-76
2021/10/22 14:09:02;;;;;;;4.17;0.90;;;;;;;;;;4990569;28;20205;-75
2021/10/22 14:11:31;;;;;;;6.57;1.87;;;;;;;;;;4990696;28;20308;-75
2021/10/22 14:14:04;;;;;;;4.80;1.37;;;;;;;;;;4989957;28;20294;-76
2021/10/22 14:16:41;;;;;;;3.20;1.33;;;;;;;;;;4990704;28;20202;-75
2021/10/22 14:25:00;;;;;;;4.97;1.80;;;;;;;;;;4971164;28;20221;-76
2021/10/22 14:30:13;;;;;;;5.03;1.40;;;;;;;;;;4972227;28;20672;-75
2021/10/22 14:32:40;;;;;;;4.50;1.50;;;;;;;;;;4990232;28;20556;-76
2021/10/22 14:35:08;;;;;;;6.67;1.37;;;;;;;;;;4984945;28;20202;-76
2021/10/22 14:37:35;;;;;;;6.17;2.00;;;;;;;;;;4970845;28;20938;-75
2021/10/22 14:40:09;;;;;;;7.40;2.20;;;;;;;;;;4971118;28;20648;-75
2021/10/22 14:42:37;;;;;;;7.03;1.93;;;;;;;;;;4971037;28;20206;-76
2021/10/22 14:45:09;;;;;;;6.00;1.40;;;;;;;;;;4970965;28;20203;-75
2021/10/22 14:47:40;;;;;;;4.27;1.43;;;;;;;;;;4978272;28;20225;-75
2021/10/22 14:50:13;;;;;;;5.77;1.53;;;;;;;;;;4990333;28;20237;-75
2021/10/22 14:52:46;;;;;;;7.10;1.47;;;;;;;;;;4975234;28;20328;-75
2021/10/22 14:55:29;;;;;;;5.30;1.50;;;;;;;;;;4971048;28;20205;-75
2021/10/22 14:57:58;;;;;;;3.80;1.33;;;;;;;;;;4970997;28;20213;-76
2021/10/22 15:00:28;;;;;;;5.10;1.20;;;;;;;;;;4970993;28;20226;-75
2021/10/22 15:02:56;;;;;;;9.43;1.70;;;;;;;;;;4981747;28;20222;-76
2021/10/22 15:05:23;;;;;;;4.47;1.30;;;;;;;;;;4990370;28;20218;-75
2021/10/22 15:07:50;;;;;;;4.90;1.30;;;;;;;;;;4973865;28;20628;-75